createdAt,value
2023-03-28T00:00:51.660Z,4.21
2023-03-28T00:03:22.735Z,4.07
2023-03-28T00:05:50.588Z,3.85
2023-03-28T00:08:18.668Z,3.61
2023-03-28T00:10:46.167Z,3.75
2023-03-28T00:13:14.437Z,3.84
2023-03-28T00:15:42.678Z,3.66
2023-03-28T00:18:13.076Z,3.91
2023-03-28T00:20:43.742Z,4.10
2023-03-28T00:23:12.410Z,4.19
2023-03-28T00:25:43.706Z,4.13
2023-03-28T00:28:10.494Z,3.62
2023-03-28T00:30:37.413Z,3.95
2023-03-28T00:33:06.365Z,3.67
2023-03-28T00:35:33.650Z,3.85
2023-03-28T00:38:00.468Z,3.45
2023-03-28T00:40:27.791Z,3.34
2023-03-28T00:42:55.241Z,2.70
2023-03-28T00:45:23.000Z,3.12
2023-03-28T00:47:59.148Z,3.25
2023-03-28T00:50:28.281Z,3.52
2023-03-28T00:53:02.026Z,3.54
2023-03-28T00:55:41.992Z,3.35
2023-03-28T00:58:11.798Z,3.53
2023-03-28T01:00:41.544Z,3.61
2023-03-28T01:03:09.283Z,3.73
2023-03-28T01:05:36.685Z,3.86
2023-03-28T01:08:09.023Z,3.39
2023-03-28T01:10:36.161Z,3.39
2023-03-28T01:13:06.264Z,3.48
2023-03-28T01:15:33.797Z,3.71
2023-03-28T01:18:03.209Z,3.61
2023-03-28T01:20:49.452Z,3.50
2023-03-28T01:23:37.369Z,3.62
2023-03-28T01:26:42.390Z,3.35
2023-03-28T01:29:29.704Z,3.76
2023-03-28T01:32:28.253Z,3.45
2023-03-28T01:35:39.253Z,3.88
2023-03-28T01:38:17.222Z,3.56
2023-03-28T01:41:05.745Z,3.59
2023-03-28T01:43:48.841Z,3.70
2023-03-28T01:46:28.846Z,3.88
2023-03-28T01:48:55.708Z,3.79
2023-03-28T01:51:46.089Z,4.04
2023-03-28T01:54:44.155Z,3.85
2023-03-28T01:57:23.633Z,3.55
2023-03-28T02:00:19.846Z,3.84
2023-03-28T02:03:19.013Z,3.91
2023-03-28T02:05:57.281Z,3.88
2023-03-28T02:08:27.308Z,3.47
2023-03-28T02:11:12.896Z,3.62
2023-03-28T02:14:09.836Z,2.90
2023-03-28T02:17:00.766Z,3.02
2023-03-28T02:20:11.911Z,3.31
2023-03-28T02:23:20.863Z,3.42
2023-03-28T02:25:57.575Z,3.39
2023-03-28T02:28:44.455Z,2.98
2023-03-28T02:31:32.724Z,3.38
2023-03-28T02:34:01.878Z,3.55
2023-03-28T08:07:17.262Z,6.21
2023-03-28T08:09:46.232Z,7.05
2023-03-28T08:12:19.805Z,7.77
2023-03-28T08:14:47.804Z,7.76
2023-03-28T08:17:18.403Z,8.42
2023-03-28T08:19:45.573Z,8.71
2023-03-28T08:22:12.726Z,8.93
2023-03-28T08:24:47.181Z,8.97
2023-03-28T08:27:23.024Z,9.47
2023-03-28T08:29:53.716Z,9.85
2023-03-28T08:32:20.993Z,10.13
2023-03-28T08:34:48.550Z,9.62
2023-03-28T08:37:18.084Z,9.72
2023-03-28T08:39:48.258Z,10.31
2023-03-28T08:42:34.568Z,9.19
2023-03-28T08:45:16.880Z,10.52
2023-03-28T08:48:01.086Z,10.87
2023-03-28T08:50:36.735Z,10.29
2023-03-28T08:53:04.854Z,9.43
2023-03-28T08:55:35.952Z,9.65
2023-03-28T08:58:03.859Z,10.35
2023-03-28T09:00:33.712Z,9.72
2023-03-28T09:03:01.176Z,10.37
2023-03-28T09:05:40.741Z,10.19
2023-03-28T09:08:23.538Z,10.03
2023-03-28T09:11:23.336Z,10.41
2023-03-28T09:13:50.464Z,10.85
2023-03-28T09:16:25.379Z,10.60
2023-03-28T09:19:15.594Z,10.63
2023-03-28T09:21:46.324Z,10.33
2023-03-28T09:24:23.897Z,10.70
2023-03-28T09:27:26.876Z,10.29
2023-03-28T09:30:19.224Z,10.47
2023-03-28T09:32:49.761Z,10.41
2023-03-28T09:35:21.843Z,10.29
2023-03-28T09:37:54.920Z,10.60
2023-03-28T09:40:26.669Z,10.72
2023-03-28T09:43:58.607Z,10.78
2023-03-28T09:46:47.187Z,10.78
2023-03-28T09:49:25.409Z,9.83
2023-03-28T09:51:59.458Z,10.18
2023-03-28T09:54:36.088Z,10.21
2023-03-28T09:57:04.785Z,10.04
2023-03-28T09:59:41.112Z,10.75
2023-03-28T10:02:33.097Z,10.52
2023-03-28T10:05:30.197Z,10.97
2023-03-28T10:08:05.527Z,10.58
2023-03-28T10:11:20.209Z,10.33
2023-03-28T10:13:49.634Z,10.94
2023-03-28T10:16:31.229Z,10.26
2023-03-28T10:19:02.472Z,10.24
2023-03-28T10:21:37.527Z,10.99
2023-03-28T10:24:16.713Z,9.63
2023-03-28T10:26:50.804Z,9.02
2023-03-28T10:29:17.940Z,10.24
2023-03-28T10:31:49.421Z,11.03
2023-03-28T10:34:30.682Z,10.85
2023-03-28T10:37:03.172Z,11.51
2023-03-28T10:39:59.139Z,11.51
2023-03-28T10:42:51.925Z,12.50
2023-03-28T10:45:42.435Z,13.42
2023-03-28T10:48:12.088Z,11.77
2023-03-28T10:50:47.786Z,12.92
2023-03-28T10:53:39.145Z,13.84
2023-03-28T10:56:18.988Z,13.40
2023-03-28T10:59:25.440Z,12.29
2023-03-28T11:01:57.409Z,12.56
2023-03-28T11:04:56.733Z,14.00
2023-03-28T11:07:46.722Z,14.15
2023-03-28T11:10:38.417Z,15.35
2023-03-28T11:13:27.026Z,16.26
2023-03-28T11:15:57.106Z,16.60
2023-03-28T11:18:58.155Z,17.21
2023-03-28T11:21:41.154Z,17.82
2023-03-28T11:24:48.295Z,18.14
2023-03-28T11:27:47.319Z,19.40
2023-03-28T11:30:32.927Z,19.89
2023-03-28T11:33:48.390Z,20.23
2023-03-28T11:36:25.873Z,19.54
2023-03-28T11:39:21.917Z,18.79
2023-03-28T11:41:49.925Z,17.27
2023-03-28T11:45:03.184Z,18.01
2023-03-28T11:47:37.883Z,17.52
2023-03-28T11:50:17.373Z,15.88
2023-03-28T11:53:18.662Z,13.91
2023-03-28T11:56:04.447Z,14.99
2023-03-28T11:58:59.105Z,16.65
2023-03-28T12:01:29.695Z,15.28
2023-03-28T12:03:59.767Z,15.67
2023-03-28T12:07:03.441Z,16.31
2023-03-28T12:09:59.019Z,14.14
2023-03-28T12:12:31.706Z,13.24
2023-03-28T12:15:19.089Z,16.20
2023-03-28T12:18:46.791Z,18.72
2023-03-28T12:21:43.595Z,20.10
2023-03-28T12:24:34.359Z,21.54
2023-03-28T12:27:25.709Z,22.50
2023-03-28T12:30:22.563Z,21.70
2023-03-28T12:32:59.918Z,21.35
2023-03-28T12:35:54.233Z,22.18
2023-03-28T12:38:35.433Z,24.19
2023-03-28T12:41:21.287Z,21.92
2023-03-28T12:43:56.987Z,19.92
2023-03-28T12:46:34.509Z,19.30
2023-03-28T12:49:05.730Z,20.91
2023-03-28T12:51:37.597Z,22.45
2023-03-28T12:54:16.895Z,22.53
2023-03-28T12:56:48.340Z,21.56
2023-03-28T12:59:40.306Z,22.42
2023-03-28T13:02:37.221Z,21.18
2023-03-28T13:05:49.481Z,20.66
2023-03-28T13:08:24.412Z,19.90
2023-03-28T13:11:35.626Z,21.14
2023-03-28T13:14:09.378Z,20.22
2023-03-28T13:16:46.916Z,20.56
2023-03-28T13:19:18.008Z,18.35
2023-03-28T13:21:55.539Z,20.41
2023-03-28T13:24:25.296Z,21.54
2023-03-28T13:26:56.342Z,20.18
2023-03-28T13:29:25.518Z,20.89
2023-03-28T13:31:55.397Z,22.79
2023-03-28T13:34:24.120Z,22.71
2023-03-28T13:36:54.260Z,22.18
2023-03-28T13:39:25.515Z,23.22
2023-03-28T13:41:52.787Z,22.46
2023-03-28T13:44:31.570Z,22.39
2023-03-28T13:47:00.864Z,22.52
2023-03-28T13:49:30.804Z,20.70
2023-03-28T13:52:04.460Z,18.49
2023-03-28T13:54:31.943Z,18.30
2023-03-28T13:57:05.398Z,15.28
2023-03-28T13:59:38.021Z,16.33
2023-03-28T14:02:39.221Z,15.72
2023-03-28T14:05:21.322Z,13.93
2023-03-28T14:07:48.665Z,13.60
2023-03-28T14:10:34.045Z,12.39
2023-03-28T14:13:28.291Z,13.49
2023-03-28T14:15:56.165Z,12.80
2023-03-28T14:18:34.125Z,12.86
2023-03-28T14:21:01.587Z,13.14
2023-03-28T14:23:32.823Z,12.91
2023-03-28T14:26:07.668Z,12.97
2023-03-28T14:28:40.054Z,12.67
2023-03-28T14:31:12.389Z,12.54
2023-03-28T14:33:39.219Z,12.08
2023-03-28T14:36:06.462Z,11.40
2023-03-28T14:38:38.595Z,11.91
2023-03-28T14:41:08.131Z,11.39
2023-03-28T14:43:35.896Z,11.38
2023-03-28T14:46:06.902Z,11.66
2023-03-28T14:48:34.267Z,11.11
2023-03-28T14:51:04.161Z,11.38
2023-03-28T14:53:35.912Z,10.00
2023-03-28T14:56:11.374Z,10.18
2023-03-28T14:58:40.434Z,10.18
2023-03-28T15:01:07.992Z,10.51
2023-03-28T15:03:39.924Z,10.94
2023-03-28T15:06:08.285Z,11.03
2023-03-28T15:08:39.620Z,11.10
2023-03-28T15:11:19.749Z,10.65
2023-03-28T15:13:49.123Z,10.71
2023-03-28T15:16:23.508Z,10.08
2023-03-28T15:19:09.556Z,10.60
2023-03-28T15:21:37.493Z,9.49
2023-03-28T15:24:05.957Z,9.70
2023-03-28T15:26:38.327Z,9.85
2023-03-28T15:29:07.156Z,10.04
2023-03-28T15:31:38.352Z,10.30
2023-03-28T15:34:10.262Z,10.03
2023-03-28T15:36:37.222Z,10.35
2023-03-28T15:39:27.714Z,10.01
2023-03-28T15:41:59.908Z,10.13
2023-03-28T15:44:29.758Z,10.35
2023-03-28T15:47:21.289Z,10.17
2023-03-28T15:49:51.257Z,10.10
2023-03-28T15:52:20.584Z,10.08
2023-03-28T15:54:52.964Z,9.93
2023-03-28T15:57:21.849Z,9.99
2023-03-28T15:59:54.125Z,10.07
2023-03-28T16:02:32.215Z,10.23
2023-03-28T16:05:11.203Z,10.09
2023-03-28T16:07:43.922Z,10.05
2023-03-28T16:10:13.518Z,10.19
2023-03-28T16:13:00.323Z,10.09
2023-03-28T16:15:46.213Z,9.88
2023-03-28T16:18:25.016Z,10.09
2023-03-28T16:20:56.764Z,9.80
2023-03-28T16:23:23.726Z,10.09
2023-03-28T16:25:50.502Z,9.93
2023-03-28T16:28:18.682Z,10.03
2023-03-28T16:30:46.113Z,9.87
2023-03-28T16:33:13.716Z,9.75
2023-03-28T16:35:40.708Z,9.72
2023-03-28T16:38:07.787Z,9.87
2023-03-28T16:40:34.649Z,9.99
2023-03-28T16:43:01.587Z,10.14
2023-03-28T16:45:30.012Z,10.02
2023-03-28T16:47:57.328Z,10.05
2023-03-28T16:50:24.177Z,10.00
2023-03-28T16:52:51.087Z,9.58
2023-03-28T16:55:18.288Z,9.81
2023-03-28T16:57:45.947Z,9.84
2023-03-28T17:00:18.225Z,9.95
2023-03-28T17:02:47.238Z,9.87
2023-03-28T17:05:15.050Z,9.78
2023-03-28T17:07:41.994Z,9.64
2023-03-28T17:10:09.631Z,9.62
2023-03-28T17:12:37.220Z,9.53
2023-03-28T17:15:04.324Z,9.50
2023-03-28T17:17:32.247Z,9.56
2023-03-28T17:20:00.571Z,9.45
2023-03-28T17:22:27.496Z,9.45
2023-03-28T17:24:57.151Z,9.40
2023-03-28T17:27:24.325Z,9.38
2023-03-28T17:29:51.953Z,9.40
2023-03-28T17:32:19.005Z,9.35
2023-03-28T17:34:46.071Z,9.30
2023-03-28T17:37:12.847Z,9.20
2023-03-28T17:39:39.992Z,9.20
2023-03-28T17:42:07.358Z,9.11
2023-03-28T17:44:34.168Z,8.99
2023-03-28T17:47:01.064Z,8.90
2023-03-28T17:49:28.131Z,8.84
2023-03-28T17:51:56.907Z,8.79
2023-03-28T17:54:25.512Z,8.71
2023-03-28T17:56:53.174Z,8.61
